Time;durP1;ratioP1;P1;durP2;ratioP2;P2;SDS_P1;SDS_P2;PMS_P1;PMS_P2;Temp;Humidity;BMP_temperature;BMP_pressure;BME280_temperature;BME280_humidity;BME280_pressure;Samples;Min_cycle;Max_cycle;Signal;HPM_P1;HPM_P2
2022/11/08 00:01:38;;;;;;;1.17;0.60;;;19.90;91.70;;;;;;6274305;22;45294;-67
2022/11/08 00:04:07;;;;;;;1.63;0.70;;;19.90;91.80;;;;;;6272101;22;45253;-67
2022/11/08 00:14:49;;;;;;;0.90;0.50;;;19.90;91.60;;;;;;6273040;22;45813;-67
2022/11/08 00:17:17;;;;;;;0.88;0.55;;;19.90;91.60;;;;;;6272472;22;45243;-67
2022/11/08 00:19:44;;;;;;;1.05;0.47;;;19.80;91.50;;;;;;6272885;22;45267;-67
2022/11/08 00:22:12;;;;;;;2.13;0.73;;;19.90;91.40;;;;;;6273509;22;45254;-67
2022/11/08 00:24:39;;;;;;;1.40;0.50;;;19.90;91.50;;;;;;6270832;22;45279;-67
2022/11/08 00:27:10;;;;;;;2.60;0.52;;;19.90;91.60;;;;;;6273721;22;45331;-67
2022/11/08 00:29:37;;;;;;;2.08;0.70;;;19.90;91.80;;;;;;6273206;22;45301;-67
2022/11/08 00:32:04;;;;;;;0.73;0.50;;;19.90;91.80;;;;;;6273571;22;45444;-67
2022/11/08 00:34:31;;;;;;;1.42;0.50;;;19.90;91.80;;;;;;6272071;22;46260;-67
2022/11/08 00:36:58;;;;;;;1.33;0.60;;;19.90;91.90;;;;;;6273313;22;45280;-67
2022/11/08 00:39:25;;;;;;;0.93;0.52;;;19.90;91.90;;;;;;6273351;22;45163;-67
2022/11/08 00:41:52;;;;;;;1.30;0.77;;;19.90;91.90;;;;;;6273554;22;45300;-67
2022/11/08 00:44:21;;;;;;;2.25;0.70;;;19.90;91.90;;;;;;6272322;22;46299;-67
2022/11/08 00:46:47;;;;;;;1.05;0.50;;;19.90;91.80;;;;;;6272851;22;45311;-67
2022/11/08 00:49:14;;;;;;;1.38;0.70;;;19.90;91.90;;;;;;6272913;22;45312;-68
2022/11/08 00:51:41;;;;;;;2.47;0.68;;;19.90;91.80;;;;;;6272883;22;45339;-67
2022/11/08 00:54:10;;;;;;;1.33;0.60;;;19.90;91.90;;;;;;6272421;22;46421;-67
2022/11/08 00:56:36;;;;;;;0.77;0.55;;;19.90;91.70;;;;;;6274283;22;45329;-66
2022/11/08 00:59:03;;;;;;;1.27;0.50;;;19.90;91.70;;;;;;6274736;22;45314;-67
2022/11/08 01:01:32;;;;;;;1.52;0.40;;;19.90;91.60;;;;;;6274439;22;45198;-67
2022/11/08 01:03:59;;;;;;;1.40;0.70;;;19.90;91.60;;;;;;6273074;22;45357;-67
2022/11/08 01:06:26;;;;;;;1.58;0.63;;;19.90;91.40;;;;;;6274369;22;45372;-67
2022/11/08 01:08:54;;;;;;;1.38;0.60;;;19.90;91.30;;;;;;6273396;22;45283;-67
2022/11/08 01:11:23;;;;;;;0.95;0.60;;;19.90;91.30;;;;;;6274394;22;45433;-67
2022/11/08 01:13:50;;;;;;;1.15;0.60;;;19.90;91.30;;;;;;6273965;22;46539;-67
2022/11/08 01:16:19;;;;;;;1.52;0.50;;;19.90;91.30;;;;;;6274144;22;45296;-67
2022/11/08 01:18:49;;;;;;;1.38;0.60;;;19.90;91.70;;;;;;6275156;22;45306;-67
2022/11/08 01:21:17;;;;;;;1.40;0.45;;;19.90;91.30;;;;;;6274199;22;45446;-67
2022/11/08 01:23:45;;;;;;;0.88;0.50;;;19.90;91.30;;;;;;6271931;22;46326;-67
2022/11/08 01:26:14;;;;;;;1.50;0.60;;;19.90;91.50;;;;;;6274609;22;45350;-67
2022/11/08 01:28:41;;;;;;;1.25;0.60;;;19.90;91.50;;;;;;6274040;22;45259;-67
2022/11/08 01:31:10;;;;;;;1.60;0.57;;;19.90;92.00;;;;;;6274905;22;45489;-67
2022/11/08 01:33:38;;;;;;;2.03;0.55;;;19.90;91.70;;;;;;6273099;22;48046;-67
2022/11/08 01:36:08;;;;;;;1.45;0.65;;;19.90;91.70;;;;;;6272787;22;45232;-67
2022/11/08 01:38:35;;;;;;;0.82;0.57;;;19.90;91.70;;;;;;6274772;22;45295;-67
2022/11/08 01:41:02;;;;;;;1.20;0.60;;;19.90;91.70;;;;;;6274681;22;45321;-67
2022/11/08 01:43:37;;;;;;;1.15;0.60;;;19.90;91.80;;;;;;6274309;22;47052;-67
2022/11/08 01:46:35;;;;;;;0.90;0.55;;;19.90;91.70;;;;;;6272956;22;45268;-67
2022/11/08 01:49:17;;;;;;;1.60;0.47;;;19.90;91.80;;;;;;6273784;22;45258;-67
2022/11/08 01:51:50;;;;;;;0.52;0.50;;;19.90;91.70;;;;;;6274765;22;45258;-67
2022/11/08 01:54:20;;;;;;;1.15;0.50;;;19.90;92.00;;;;;;6273595;22;48065;-67
2022/11/08 01:56:48;;;;;;;2.53;0.60;;;19.90;91.60;;;;;;6273725;22;45423;-67
2022/11/08 01:59:17;;;;;;;1.02;0.50;;;19.90;91.60;;;;;;6275000;22;45251;-67
2022/11/08 02:01:44;;;;;;;1.38;0.60;;;19.90;91.40;;;;;;6273862;22;45291;-67
2022/11/08 02:04:12;;;;;;;1.35;0.60;;;19.90;91.30;;;;;;6273396;22;45344;-68
2022/11/08 02:06:39;;;;;;;1.05;0.40;;;19.90;91.20;;;;;;6274309;22;45256;-67
2022/11/08 02:09:10;;;;;;;1.48;0.57;;;19.90;91.30;;;;;;6274366;22;45268;-67
2022/11/08 02:11:38;;;;;;;0.75;0.40;;;19.90;91.30;;;;;;6274617;22;45332;-67
2022/11/08 02:14:06;;;;;;;1.65;0.60;;;19.90;91.10;;;;;;6273109;22;47366;-67
2022/11/08 02:16:32;;;;;;;0.77;0.43;;;19.90;91.10;;;;;;6274292;22;45316;-67
2022/11/08 02:18:59;;;;;;;0.88;0.40;;;19.90;91.10;;;;;;6274534;22;45219;-67
2022/11/08 02:21:31;;;;;;;3.25;0.60;;;19.90;91.10;;;;;;6274534;22;45364;-67
2022/11/08 02:24:00;;;;;;;1.70;0.60;;;19.90;91.20;;;;;;6272501;22;46238;-67
2022/11/08 02:26:31;;;;;;;2.25;0.70;;;19.90;91.30;;;;;;6273812;22;45302;-68
2022/11/08 02:28:58;;;;;;;1.27;0.60;;;19.90;91.30;;;;;;6274726;22;45404;-67
2022/11/08 02:31:25;;;;;;;0.70;0.50;;;19.90;91.20;;;;;;6274278;22;45626;-67
2022/11/08 02:33:52;;;;;;;0.98;0.52;;;19.90;91.40;;;;;;6270074;22;46307;-68
2022/11/08 02:36:21;;;;;;;0.95;0.40;;;19.90;91.40;;;;;;6274170;22;45243;-67
2022/11/08 02:38:52;;;;;;;0.30;0.30;;;19.90;91.40;;;;;;6273194;22;45429;-67
2022/11/08 02:41:21;;;;;;;1.13;0.47;;;19.90;91.30;;;;;;6274032;22;45517;-67
2022/11/08 02:43:48;;;;;;;1.17;0.50;;;19.90;91.40;;;;;;6273391;22;46331;-68
2022/11/08 02:46:15;;;;;;;2.28;0.60;;;19.90;91.30;;;;;;6274016;22;45296;-68
2022/11/08 02:48:41;;;;;;;0.50;0.30;;;19.90;91.30;;;;;;6273681;22;45431;-67
2022/11/08 02:51:08;;;;;;;0.68;0.47;;;19.90;91.30;;;;;;6274020;22;45256;-68
2022/11/08 02:53:35;;;;;;;1.10;0.40;;;19.90;91.10;;;;;;6274038;22;48763;-67
2022/11/08 02:56:02;;;;;;;1.25;0.60;;;19.90;91.10;;;;;;6272617;22;45256;-67
2022/11/08 02:58:30;;;;;;;0.43;0.40;;;19.90;91.10;;;;;;6274408;22;45306;-68
2022/11/08 03:00:56;;;;;;;1.17;0.47;;;19.90;91.20;;;;;;6273698;22;45545;-68
2022/11/08 03:03:23;;;;;;;1.05;0.60;;;19.90;91.10;;;;;;6273817;22;47268;-67
2022/11/08 03:05:50;;;;;;;0.77;0.57;;;19.90;91.00;;;;;;6273795;22;46193;-68
2022/11/08 03:08:17;;;;;;;0.70;0.45;;;19.80;91.00;;;;;;6274064;22;45319;-67
2022/11/08 03:10:43;;;;;;;1.50;0.50;;;19.80;90.70;;;;;;6274342;22;45384;-68
2022/11/08 03:13:10;;;;;;;0.75;0.43;;;19.80;90.80;;;;;;6274035;22;46215;-67
2022/11/08 03:15:38;;;;;;;2.55;0.43;;;19.80;90.90;;;;;;6273153;22;45337;-67
2022/11/08 03:18:05;;;;;;;1.90;0.50;;;19.80;90.90;;;;;;6273517;22;45440;-67
2022/11/08 03:20:32;;;;;;;0.75;0.40;;;19.80;90.90;;;;;;6274581;22;45533;-68
2022/11/08 03:22:59;;;;;;;1.75;0.50;;;19.80;91.00;;;;;;6273103;22;47396;-67
2022/11/08 03:25:26;;;;;;;0.63;0.43;;;19.80;90.90;;;;;;6272615;22;45513;-68
2022/11/08 03:27:53;;;;;;;0.38;0.32;;;19.90;91.00;;;;;;6274569;22;45308;-67
2022/11/08 03:30:20;;;;;;;0.90;0.40;;;19.90;91.10;;;;;;6273717;22;45350;-68
2022/11/08 03:32:49;;;;;;;0.73;0.40;;;19.80;91.20;;;;;;6272097;22;45279;-68
2022/11/08 03:35:16;;;;;;;0.45;0.40;;;19.90;91.10;;;;;;6272950;22;45310;-68
2022/11/08 03:37:50;;;;;;;0.40;0.25;;;19.90;91.10;;;;;;6274240;22;45317;-68
2022/11/08 03:40:17;;;;;;;0.65;0.40;;;19.80;91.10;;;;;;6273823;22;45458;-68
2022/11/08 03:42:43;;;;;;;1.27;0.40;;;19.90;90.90;;;;;;6272341;22;45402;-68
2022/11/08 03:45:11;;;;;;;0.85;0.50;;;19.90;91.10;;;;;;6271140;22;45300;-68
2022/11/08 03:47:38;;;;;;;0.77;0.40;;;19.90;91.10;;;;;;6273535;22;45266;-68
2022/11/08 03:50:08;;;;;;;0.73;0.40;;;19.80;91.10;;;;;;6273793;22;45505;-67
2022/11/08 03:52:40;;;;;;;1.08;0.35;;;19.90;90.90;;;;;;6272399;22;45290;-68
2022/11/08 03:55:08;;;;;;;1.38;0.50;;;19.80;90.90;;;;;;6272660;22;45502;-68
2022/11/08 03:57:35;;;;;;;0.75;0.50;;;19.80;90.90;;;;;;6274187;22;45445;-68
2022/11/08 04:00:02;;;;;;;1.10;0.60;;;19.80;90.90;;;;;;6273688;22;45220;-67
2022/11/08 04:02:29;;;;;;;0.75;0.38;;;19.80;90.70;;;;;;6273324;22;48634;-67
2022/11/08 04:04:56;;;;;;;0.90;0.45;;;19.80;90.80;;;;;;6268720;22;45407;-68
2022/11/08 04:07:24;;;;;;;0.98;0.40;;;19.80;90.70;;;;;;6272931;22;45405;-68
2022/11/08 04:09:51;;;;;;;1.35;0.50;;;19.80;90.60;;;;;;6273084;22;45395;-67
2022/11/08 04:15:17;;;;;;;0.80;0.40;;;19.80;90.60;;;;;;6273686;22;45295;-68
2022/11/08 04:23:12;;;;;;;1.00;0.50;;;19.80;90.70;;;;;;6270764;22;45384;-68
2022/11/08 04:25:39;;;;;;;0.65;0.30;;;19.80;90.70;;;;;;6272523;22;45244;-68
2022/11/08 04:28:06;;;;;;;0.77;0.50;;;19.80;90.80;;;;;;6274107;22;45348;-68
2022/11/08 04:30:34;;;;;;;0.43;0.40;;;19.80;90.80;;;;;;6273439;22;45444;-67
2022/11/08 04:33:01;;;;;;;1.58;0.60;;;19.80;90.80;;;;;;6274550;22;45393;-68
2022/11/08 04:35:28;;;;;;;1.30;0.55;;;19.80;90.80;;;;;;6273051;22;45303;-68
2022/11/08 04:37:58;;;;;;;1.90;0.52;;;19.80;90.80;;;;;;6275021;22;45428;-68
2022/11/08 04:40:26;;;;;;;0.30;0.30;;;19.80;90.80;;;;;;6274129;22;45275;-68
2022/11/08 04:42:53;;;;;;;1.50;0.73;;;19.80;90.80;;;;;;6274997;22;45327;-68
2022/11/08 04:45:20;;;;;;;0.77;0.35;;;19.80;90.80;;;;;;6273331;22;45287;-68
2022/11/08 04:47:47;;;;;;;1.33;0.47;;;19.80;90.60;;;;;;6273788;22;45363;-68
2022/11/08 04:50:14;;;;;;;0.63;0.30;;;19.80;90.70;;;;;;6274629;22;45378;-68
2022/11/08 04:52:42;;;;;;;0.68;0.50;;;19.80;90.60;;;;;;6274173;22;45260;-68
2022/11/08 04:55:09;;;;;;;2.30;0.60;;;19.80;90.60;;;;;;6273756;22;45568;-68
2022/11/08 04:57:37;;;;;;;1.13;0.40;;;19.80;90.30;;;;;;6274929;22;45320;-68
2022/11/08 05:00:05;;;;;;;1.45;0.50;;;19.80;90.30;;;;;;6275104;22;45196;-68
2022/11/08 05:02:32;;;;;;;0.77;0.40;;;19.80;90.30;;;;;;6273405;22;45403;-68
2022/11/08 05:04:59;;;;;;;0.85;0.47;;;19.80;90.30;;;;;;6273077;22;45321;-68
2022/11/08 05:07:26;;;;;;;1.15;0.60;;;19.80;90.30;;;;;;6274291;22;45423;-68
2022/11/08 05:09:52;;;;;;;0.52;0.50;;;19.80;90.30;;;;;;6274300;22;45280;-68
2022/11/08 05:12:19;;;;;;;2.53;0.50;;;19.80;90.30;;;;;;6274435;22;47007;-68
2022/11/08 05:14:47;;;;;;;1.75;0.85;;;19.80;90.40;;;;;;6273732;22;45191;-68
2022/11/08 05:17:14;;;;;;;0.80;0.38;;;19.80;90.40;;;;;;6273878;22;45335;-68
2022/11/08 05:25:09;;;;;;;0.85;0.40;;;19.80;90.50;;;;;;6274510;22;45313;-68
2022/11/08 05:27:36;;;;;;;1.42;0.40;;;19.80;90.50;;;;;;6272032;22;45372;-68
2022/11/08 05:30:05;;;;;;;0.55;0.45;;;19.80;90.40;;;;;;6274725;22;45410;-68
2022/11/08 05:32:32;;;;;;;0.90;0.40;;;19.80;90.40;;;;;;6271503;22;45304;-68
2022/11/08 05:34:58;;;;;;;1.00;0.50;;;19.80;90.40;;;;;;6272810;22;45316;-68
2022/11/08 05:37:25;;;;;;;0.90;0.52;;;19.80;90.50;;;;;;6271736;22;45363;-68
2022/11/08 05:39:52;;;;;;;0.70;0.55;;;19.80;90.40;;;;;;6273558;22;45299;-68
2022/11/08 05:42:19;;;;;;;0.70;0.52;;;19.80;90.40;;;;;;6274337;22;47245;-68
2022/11/08 05:44:46;;;;;;;1.20;0.35;;;19.80;90.40;;;;;;6273053;22;46256;-68
2022/11/08 05:47:14;;;;;;;0.80;0.63;;;19.80;90.40;;;;;;6273549;22;45329;-68
2022/11/08 05:49:41;;;;;;;0.77;0.50;;;19.80;90.00;;;;;;6272840;22;45422;-68
2022/11/08 05:52:07;;;;;;;0.50;0.50;;;19.80;89.10;;;;;;6272830;22;47618;-68
2022/11/08 05:54:34;;;;;;;0.50;0.50;;;19.80;88.10;;;;;;6272618;22;45685;-68
2022/11/08 05:57:01;;;;;;;0.93;0.60;;;19.80;87.80;;;;;;6272948;22;45360;-68
2022/11/08 05:59:28;;;;;;;2.80;0.70;;;19.80;87.80;;;;;;6272214;22;45366;-68
2022/11/08 06:01:54;;;;;;;0.80;0.40;;;19.80;87.80;;;;;;6272258;22;48049;-68
2022/11/08 06:04:23;;;;;;;1.35;0.52;;;19.70;87.10;;;;;;6270687;22;45791;-68
2022/11/08 06:06:49;;;;;;;1.15;0.70;;;19.80;87.10;;;;;;6273668;22;45286;-68
2022/11/08 06:09:16;;;;;;;1.55;0.80;;;19.80;86.70;;;;;;6272200;22;45387;-68
2022/11/08 06:11:43;;;;;;;1.52;0.65;;;19.80;86.80;;;;;;6273555;22;46299;-68
2022/11/08 06:14:10;;;;;;;0.75;0.60;;;19.70;86.70;;;;;;6271965;22;45350;-68
2022/11/08 06:16:37;;;;;;;1.25;0.60;;;19.80;87.20;;;;;;6272297;22;45283;-68
2022/11/08 06:19:04;;;;;;;1.15;0.50;;;19.70;87.10;;;;;;6273666;22;45387;-68
2022/11/08 06:21:32;;;;;;;0.60;0.60;;;19.70;86.90;;;;;;6273112;22;47656;-68
2022/11/08 06:23:58;;;;;;;0.60;0.50;;;19.70;86.90;;;;;;6270979;22;45252;-67
2022/11/08 06:26:25;;;;;;;0.77;0.60;;;19.70;86.50;;;;;;6273364;22;45236;-68
2022/11/08 06:28:52;;;;;;;2.05;0.70;;;19.70;88.50;;;;;;6273674;22;45233;-68
2022/11/08 06:31:19;;;;;;;0.70;0.68;;;19.70;88.90;;;;;;6272967;22;48504;-68
2022/11/08 06:33:46;;;;;;;0.75;0.50;;;19.70;89.10;;;;;;6273123;22;45247;-68
2022/11/08 06:36:12;;;;;;;0.73;0.63;;;19.70;89.50;;;;;;6274031;22;45508;-68
2022/11/08 06:38:40;;;;;;;0.68;0.52;;;19.70;89.40;;;;;;6272537;22;45414;-68
2022/11/08 06:41:07;;;;;;;1.45;0.65;;;19.70;89.60;;;;;;6272720;22;46579;-68
2022/11/08 06:43:34;;;;;;;1.48;0.70;;;19.70;89.90;;;;;;6274686;22;45662;-68
2022/11/08 06:46:01;;;;;;;1.85;0.85;;;19.70;89.80;;;;;;6272888;22;45440;-68
2022/11/08 06:48:28;;;;;;;1.35;0.60;;;19.70;89.40;;;;;;6274394;22;45497;-67
2022/11/08 06:50:55;;;;;;;1.25;0.68;;;19.70;89.40;;;;;;6273084;22;46566;-68
2022/11/08 06:53:22;;;;;;;1.20;0.70;;;19.70;89.20;;;;;;6273827;22;45290;-67
2022/11/08 06:55:50;;;;;;;0.50;0.40;;;19.70;89.40;;;;;;6272931;22;45263;-68
2022/11/08 06:58:17;;;;;;;1.65;0.70;;;19.70;88.90;;;;;;6273796;22;45437;-68
2022/11/08 07:00:43;;;;;;;0.95;0.47;;;19.70;89.00;;;;;;6274135;22;47061;-68
2022/11/08 07:03:10;;;;;;;1.23;0.80;;;19.70;88.70;;;;;;6272970;22;45260;-68
2022/11/08 07:05:37;;;;;;;1.63;0.80;;;19.70;88.70;;;;;;6272938;22;45458;-68
2022/11/08 07:08:04;;;;;;;0.82;0.50;;;19.70;88.90;;;;;;6272997;22;45426;-68
2022/11/08 07:10:32;;;;;;;0.60;0.50;;;19.70;88.90;;;;;;6272590;22;46274;-67
2022/11/08 07:13:02;;;;;;;0.77;0.60;;;19.70;88.90;;;;;;6273305;22;45431;-68
2022/11/08 07:15:30;;;;;;;1.05;0.60;;;19.70;88.70;;;;;;6272538;22;45304;-67
2022/11/08 07:18:00;;;;;;;0.82;0.60;;;19.70;89.10;;;;;;6273718;22;45281;-68
2022/11/08 07:20:27;;;;;;;0.70;0.60;;;19.70;89.30;;;;;;6273254;22;48252;-68
2022/11/08 07:22:55;;;;;;;1.17;0.43;;;19.70;89.00;;;;;;6272527;22;45191;-68
2022/11/08 07:25:22;;;;;;;1.08;0.65;;;19.70;88.80;;;;;;6273378;22;45391;-68
2022/11/08 07:27:48;;;;;;;1.42;0.90;;;19.70;88.90;;;;;;6273501;22;45424;-68
2022/11/08 07:30:17;;;;;;;0.95;0.75;;;19.70;88.90;;;;;;6273115;22;46253;-68
2022/11/08 07:32:43;;;;;;;0.98;0.80;;;19.70;88.70;;;;;;6272661;22;45381;-68
2022/11/08 07:35:10;;;;;;;1.35;0.57;;;19.70;88.90;;;;;;6272743;22;45316;-68
2022/11/08 07:37:37;;;;;;;1.30;0.80;;;19.70;88.80;;;;;;6274194;22;45478;-68
2022/11/08 07:40:04;;;;;;;1.38;0.50;;;19.70;88.80;;;;;;6273229;22;48447;-68
2022/11/08 07:42:31;;;;;;;1.42;0.70;;;19.70;88.60;;;;;;6273833;22;45388;-67
2022/11/08 07:44:58;;;;;;;1.13;0.65;;;19.70;87.00;;;;;;6273251;22;45336;-68
2022/11/08 07:47:26;;;;;;;1.63;0.80;;;19.70;83.70;;;;;;6273532;22;45475;-68
2022/11/08 07:49:53;;;;;;;0.88;0.50;;;19.70;83.60;;;;;;6273154;22;46366;-68
2022/11/08 07:52:19;;;;;;;1.20;0.60;;;19.80;85.00;;;;;;6273915;22;45266;-68
2022/11/08 07:54:46;;;;;;;1.73;0.70;;;19.80;85.60;;;;;;6272455;22;45345;-67
2022/11/08 07:57:14;;;;;;;1.80;0.73;;;19.70;85.40;;;;;;6272118;22;45304;-67
2022/11/08 07:59:41;;;;;;;1.00;0.70;;;19.70;84.90;;;;;;6274302;22;47335;-68
2022/11/08 08:02:09;;;;;;;1.02;0.50;;;19.70;85.30;;;;;;6273181;22;45677;-68
2022/11/08 08:04:37;;;;;;;1.30;0.60;;;19.70;85.10;;;;;;6271707;22;45479;-68
2022/11/08 08:07:05;;;;;;;1.40;0.60;;;19.70;86.10;;;;;;6271148;22;45267;-68
2022/11/08 08:09:33;;;;;;;1.20;0.52;;;19.70;86.20;;;;;;6271746;22;48352;-68
2022/11/08 08:12:00;;;;;;;1.52;0.70;;;19.70;85.90;;;;;;6272753;22;45379;-68
2022/11/08 08:14:26;;;;;;;0.70;0.60;;;19.70;86.40;;;;;;6271926;22;45376;-67
2022/11/08 08:16:53;;;;;;;1.27;0.70;;;19.70;86.20;;;;;;6272897;22;45403;-68
2022/11/08 08:19:20;;;;;;;1.35;0.60;;;19.70;86.40;;;;;;6272428;22;47090;-68
2022/11/08 08:21:48;;;;;;;1.40;0.73;;;19.70;86.20;;;;;;6269471;22;45207;-68
2022/11/08 08:24:15;;;;;;;2.05;0.82;;;19.70;86.40;;;;;;6271572;22;45266;-68
2022/11/08 08:26:42;;;;;;;0.45;0.45;;;19.70;86.30;;;;;;6272604;22;45372;-68
2022/11/08 08:29:08;;;;;;;0.88;0.63;;;19.70;86.00;;;;;;6272859;22;46771;-68
2022/11/08 08:31:36;;;;;;;1.25;0.70;;;19.70;85.90;;;;;;6270847;22;45287;-68
2022/11/08 08:34:02;;;;;;;1.58;0.70;;;19.80;86.40;;;;;;6269758;22;45322;-68
2022/11/08 08:36:29;;;;;;;1.25;0.63;;;19.80;86.30;;;;;;6269737;22;45252;-68
2022/11/08 08:38:58;;;;;;;0.93;0.68;;;19.80;86.70;;;;;;6271802;22;47633;-68
2022/11/08 08:41:24;;;;;;;1.05;0.60;;;19.80;86.70;;;;;;6271141;22;45194;-68
2022/11/08 08:43:51;;;;;;;3.13;0.82;;;19.80;86.50;;;;;;6270726;22;45306;-68
2022/11/08 08:46:18;;;;;;;1.73;0.70;;;19.70;86.20;;;;;;6271805;22;45232;-68
2022/11/08 08:48:45;;;;;;;1.17;0.70;;;19.80;86.60;;;;;;6271329;22;48007;-68
2022/11/08 08:51:11;;;;;;;1.27;0.60;;;19.80;86.50;;;;;;6272057;22;45715;-68
2022/11/08 08:53:38;;;;;;;1.30;0.60;;;19.80;86.20;;;;;;6272229;22;45215;-68
2022/11/08 08:56:07;;;;;;;1.17;0.55;;;19.80;86.60;;;;;;6271608;22;45435;-68
2022/11/08 08:58:34;;;;;;;0.93;0.70;;;19.70;86.10;;;;;;6273222;22;47205;-68
2022/11/08 09:01:01;;;;;;;0.63;0.45;;;19.80;85.70;;;;;;6271810;22;45362;-68
2022/11/08 09:03:28;;;;;;;1.25;0.60;;;19.80;85.60;;;;;;6273106;22;45269;-68
2022/11/08 09:05:57;;;;;;;0.73;0.68;;;19.80;85.20;;;;;;6270757;22;45520;-68
2022/11/08 09:08:24;;;;;;;1.20;0.70;;;19.80;85.50;;;;;;6271890;22;48435;-68
2022/11/08 09:10:54;;;;;;;1.30;0.70;;;19.80;86.00;;;;;;6272271;22;45478;-68
2022/11/08 09:13:23;;;;;;;1.17;0.60;;;19.80;86.00;;;;;;6271851;22;45442;-68
2022/11/08 09:15:50;;;;;;;0.98;0.50;;;19.80;86.30;;;;;;6270792;22;45492;-70
2022/11/08 09:18:17;;;;;;;1.98;0.70;;;19.80;86.60;;;;;;6273153;22;45447;-69
2022/11/08 09:20:44;;;;;;;4.20;0.77;;;19.80;87.40;;;;;;6273066;22;45200;-69
2022/11/08 09:23:11;;;;;;;4.47;0.80;;;19.80;87.70;;;;;;6273642;22;45283;-69
2022/11/08 09:25:38;;;;;;;3.95;0.82;;;19.80;87.90;;;;;;6271683;22;45282;-69
2022/11/08 09:28:05;;;;;;;4.53;0.80;;;19.80;87.60;;;;;;6273981;22;46504;-69
2022/11/08 09:30:33;;;;;;;4.60;0.80;;;19.80;87.70;;;;;;6272751;22;45315;-69
2022/11/08 09:33:00;;;;;;;2.97;0.60;;;19.80;87.70;;;;;;6273767;22;45424;-70
2022/11/08 09:35:27;;;;;;;1.45;0.77;;;19.80;87.80;;;;;;6272640;22;45228;-70
2022/11/08 09:37:55;;;;;;;3.97;1.02;;;19.80;87.80;;;;;;6273980;22;48215;-69
2022/11/08 09:40:27;;;;;;;3.97;0.63;;;19.80;87.80;;;;;;6273423;22;45403;-69
2022/11/08 09:43:12;;;;;;;3.33;0.60;;;19.80;87.70;;;;;;6273100;22;45321;-70
2022/11/08 09:45:45;;;;;;;1.73;0.70;;;19.80;87.70;;;;;;6273380;22;45363;-70
2022/11/08 09:48:21;;;;;;;1.98;0.85;;;19.80;87.40;;;;;;6273075;22;46401;-69
2022/11/08 09:50:52;;;;;;;0.77;0.60;;;19.80;86.80;;;;;;6272144;22;45208;-69
2022/11/08 09:53:25;;;;;;;1.63;0.50;;;19.80;87.90;;;;;;6273038;22;45399;-70
2022/11/08 09:55:56;;;;;;;1.30;0.55;;;19.80;86.90;;;;;;6273047;22;45425;-69
2022/11/08 09:58:30;;;;;;;2.38;0.90;;;19.80;87.10;;;;;;6272378;22;47015;-69
2022/11/08 10:00:59;;;;;;;0.82;0.68;;;19.90;87.00;;;;;;6271263;22;45247;-69
2022/11/08 10:03:26;;;;;;;1.63;0.82;;;19.90;86.90;;;;;;6273330;22;45287;-69
2022/11/08 10:06:34;;;;;;;1.33;0.50;;;19.90;86.70;;;;;;6268762;22;45493;-69
2022/11/08 10:09:13;;;;;;;1.38;0.60;;;19.90;86.60;;;;;;6147955;23;47153;-69
2022/11/08 10:11:57;;;;;;;1.02;0.55;;;19.90;86.60;;;;;;6147676;23;45440;-69
2022/11/08 10:14:39;;;;;;;0.77;0.47;;;19.90;86.80;;;;;;6236350;22;45254;-69
2022/11/08 10:17:28;;;;;;;0.60;0.50;;;19.90;87.00;;;;;;6272169;22;45417;-69
2022/11/08 10:20:07;;;;;;;0.93;0.60;;;19.90;87.10;;;;;;6273729;22;47088;-69
2022/11/08 10:22:46;;;;;;;0.88;0.50;;;19.90;87.00;;;;;;6273112;22;45307;-70
2022/11/08 10:25:22;;;;;;;0.80;0.38;;;19.90;87.00;;;;;;6272722;22;45299;-69
2022/11/08 10:27:53;;;;;;;0.95;0.57;;;20.00;87.10;;;;;;6273295;22;45370;-70
2022/11/08 10:30:22;;;;;;;0.80;0.55;;;19.90;87.10;;;;;;6272630;22;46283;-70
2022/11/08 10:32:54;;;;;;;0.73;0.50;;;20.00;87.10;;;;;;6273490;22;45687;-70
2022/11/08 10:35:27;;;;;;;0.90;0.60;;;20.00;87.10;;;;;;6270756;22;45299;-70
2022/11/08 10:37:57;;;;;;;1.67;0.60;;;20.00;87.00;;;;;;6273593;22;45251;-70
2022/11/08 10:40:36;;;;;;;0.63;0.40;;;19.90;86.90;;;;;;6272024;22;45492;-70
2022/11/08 10:43:10;;;;;;;1.50;0.70;;;20.00;87.00;;;;;;6273406;22;45910;-70
2022/11/08 10:45:37;;;;;;;1.23;0.50;;;19.90;86.70;;;;;;6271156;22;45256;-70
2022/11/08 10:48:05;;;;;;;0.77;0.60;;;20.00;86.70;;;;;;6272715;22;45395;-70
2022/11/08 10:50:41;;;;;;;1.38;0.63;;;20.00;86.90;;;;;;6272897;22;46340;-70
2022/11/08 10:53:16;;;;;;;1.45;0.65;;;19.90;86.90;;;;;;6273422;22;45267;-69
2022/11/08 10:55:49;;;;;;;0.90;0.40;;;19.90;87.50;;;;;;6272657;22;45315;-70
2022/11/08 10:58:36;;;;;;;0.85;0.63;;;19.90;86.60;;;;;;6273194;22;45387;-69
2022/11/08 11:01:12;;;;;;;1.55;0.57;;;19.90;86.60;;;;;;6272645;22;46611;-69
2022/11/08 11:03:41;;;;;;;0.82;0.50;;;19.90;86.40;;;;;;6273132;22;45214;-70
2022/11/08 11:06:23;;;;;;;0.93;0.60;;;19.90;86.40;;;;;;6272217;22;45282;-69
2022/11/08 11:08:53;;;;;;;0.80;0.50;;;19.90;86.60;;;;;;6273330;22;45368;-70
2022/11/08 11:11:25;;;;;;;0.93;0.60;;;20.00;86.40;;;;;;6272325;22;48381;-69
2022/11/08 11:14:14;;;;;;;1.00;0.50;;;19.90;87.70;;;;;;6272478;22;45434;-69
2022/11/08 11:16:53;;;;;;;0.80;0.40;;;20.00;88.00;;;;;;6262790;22;45220;-69
2022/11/08 11:19:22;;;;;;;1.17;0.55;;;20.00;86.90;;;;;;6273591;22;45260;-69
2022/11/08 11:21:56;;;;;;;0.90;0.43;;;20.00;87.10;;;;;;6271384;22;45490;-69
2022/11/08 11:24:23;;;;;;;1.10;0.50;;;20.00;86.90;;;;;;6272083;22;45236;-69
2022/11/08 11:27:00;;;;;;;0.60;0.43;;;20.00;86.90;;;;;;6271757;22;45302;-69
2022/11/08 11:29:29;;;;;;;0.65;0.50;;;20.00;86.90;;;;;;6272556;22;45141;-69
2022/11/08 11:31:57;;;;;;;0.90;0.65;;;20.00;87.00;;;;;;6271196;22;46272;-69
2022/11/08 11:34:44;;;;;;;1.25;0.50;;;20.00;87.00;;;;;;6270628;22;45357;-69
2022/11/08 11:37:31;;;;;;;1.00;0.50;;;20.00;87.00;;;;;;6272773;22;45233;-70
2022/11/08 11:40:04;;;;;;;1.38;0.50;;;20.00;86.70;;;;;;6273177;22;45216;-70
2022/11/08 11:42:37;;;;;;;0.77;0.50;;;20.00;86.90;;;;;;6272832;22;47431;-69
2022/11/08 11:45:12;;;;;;;1.45;0.47;;;20.00;86.60;;;;;;6271199;22;45216;-70
2022/11/08 11:47:46;;;;;;;0.80;0.60;;;20.00;86.60;;;;;;6273718;22;45276;-70
2022/11/08 11:50:30;;;;;;;1.75;0.57;;;20.00;86.80;;;;;;6273352;22;45254;-70
2022/11/08 11:52:59;;;;;;;1.05;0.40;;;20.00;86.60;;;;;;6273835;22;45347;-70
2022/11/08 11:55:36;;;;;;;1.20;0.55;;;19.90;86.60;;;;;;6272612;22;45360;-70
2022/11/08 11:58:15;;;;;;;0.52;0.40;;;20.00;87.50;;;;;;6273544;22;45275;-69
2022/11/08 12:00:51;;;;;;;0.82;0.40;;;19.90;86.60;;;;;;6273271;22;45205;-69
2022/11/08 12:03:35;;;;;;;0.55;0.50;;;20.00;86.60;;;;;;6272661;22;47258;-70
2022/11/08 12:06:25;;;;;;;1.00;0.50;;;20.00;86.40;;;;;;6271792;22;45255;-70
2022/11/08 12:09:09;;;;;;;0.60;0.50;;;20.00;86.50;;;;;;6273284;22;45217;-70
2022/11/08 12:11:52;;;;;;;0.65;0.40;;;20.00;86.80;;;;;;6273717;22;45252;-70
2022/11/08 12:14:32;;;;;;;0.40;0.40;;;20.00;86.90;;;;;;6273095;22;46468;-70
2022/11/08 12:17:13;;;;;;;1.08;0.60;;;20.00;87.00;;;;;;6272702;22;45221;-69
2022/11/08 12:19:55;;;;;;;0.52;0.35;;;20.00;86.80;;;;;;6273182;22;45287;-70
2022/11/08 12:22:42;;;;;;;1.88;0.50;;;20.00;86.90;;;;;;6273811;22;45228;-69
2022/11/08 12:25:13;;;;;;;0.90;0.50;;;20.00;87.00;;;;;;6272361;22;46306;-70
2022/11/08 12:27:48;;;;;;;1.25;0.60;;;20.00;86.90;;;;;;6273667;22;45375;-70
2022/11/08 12:30:18;;;;;;;1.10;0.57;;;20.00;87.00;;;;;;6273488;22;45298;-69
2022/11/08 12:33:02;;;;;;;0.70;0.40;;;20.00;87.00;;;;;;6272906;22;45407;-70
2022/11/08 12:35:38;;;;;;;0.73;0.63;;;20.00;86.90;;;;;;6272303;22;46274;-70
2022/11/08 12:38:19;;;;;;;0.65;0.55;;;20.00;87.00;;;;;;6272221;22;45285;-70
2022/11/08 12:40:53;;;;;;;0.90;0.60;;;20.00;86.70;;;;;;6272572;22;45323;-70
2022/11/08 12:43:39;;;;;;;0.77;0.40;;;20.00;86.80;;;;;;6271644;22;45367;-69
2022/11/08 12:46:11;;;;;;;1.10;0.50;;;20.00;86.70;;;;;;6272539;22;48046;-69
2022/11/08 12:49:10;;;;;;;0.63;0.50;;;20.00;86.80;;;;;;6271844;22;45200;-70
2022/11/08 12:51:51;;;;;;;0.90;0.50;;;19.90;86.90;;;;;;6273341;22;45236;-69
2022/11/08 12:54:26;;;;;;;0.50;0.50;;;19.90;87.00;;;;;;6274329;22;45276;-69
2022/11/08 12:56:55;;;;;;;0.60;0.47;;;19.90;88.00;;;;;;6273401;22;47119;-69
2022/11/08 12:59:26;;;;;;;0.68;0.50;;;19.90;87.00;;;;;;6273170;22;45318;-70
2022/11/08 13:01:53;;;;;;;0.85;0.60;;;19.90;86.90;;;;;;6272712;22;45263;-70
2022/11/08 13:04:39;;;;;;;1.00;0.40;;;19.90;86.80;;;;;;6274250;22;45443;-70
2022/11/08 13:07:22;;;;;;;0.50;0.50;;;19.90;87.00;;;;;;6270652;22;47208;-69
2022/11/08 13:09:56;;;;;;;0.68;0.50;;;19.90;87.10;;;;;;6274405;22;45397;-70
2022/11/08 13:12:33;;;;;;;1.15;0.60;;;19.90;87.10;;;;;;6273209;22;45428;-70
2022/11/08 13:15:00;;;;;;;0.77;0.52;;;19.90;87.10;;;;;;6274291;22;45176;-70
2022/11/08 13:17:29;;;;;;;0.80;0.45;;;20.00;87.10;;;;;;6273901;22;46441;-70
2022/11/08 13:19:59;;;;;;;2.15;0.50;;;20.00;87.10;;;;;;6274688;22;45360;-69
2022/11/08 13:22:59;;;;;;;1.23;0.50;;;19.90;87.00;;;;;;6274081;22;45314;-69
2022/11/08 13:25:38;;;;;;;0.60;0.50;;;19.90;87.00;;;;;;6267189;22;45501;-69